sensor_id;sensor_type;location;lat;lon;timestamp;temperature;humidity
9881;DHT22;4979;51.014;6.678;2024-02-26T00:01:51;7.60;99.90
9881;DHT22;4979;51.014;6.678;2024-02-26T00:04:17;7.60;99.90
9881;DHT22;4979;51.014;6.678;2024-02-26T00:06:43;7.60;99.90
9881;DHT22;4979;51.014;6.678;2024-02-26T00:09:09;7.60;99.90
9881;DHT22;4979;51.014;6.678;2024-02-26T00:11:36;7.60;99.90
9881;DHT22;4979;51.014;6.678;2024-02-26T00:14:01;7.50;99.90
9881;DHT22;4979;51.014;6.678;2024-02-26T00:16:27;7.50;99.90
9881;DHT22;4979;51.014;6.678;2024-02-26T00:18:52;7.50;99.90
9881;DHT22;4979;51.014;6.678;2024-02-26T00:21:18;7.50;99.90
9881;DHT22;4979;51.014;6.678;2024-02-26T00:23:43;7.50;99.90
9881;DHT22;4979;51.014;6.678;2024-02-26T00:26:09;7.50;99.90
9881;DHT22;4979;51.014;6.678;2024-02-26T00:28:36;7.50;99.90
9881;DHT22;4979;51.014;6.678;2024-02-26T00:31:02;7.50;99.90
9881;DHT22;4979;51.014;6.678;2024-02-26T00:33:27;7.50;99.90
9881;DHT22;4979;51.014;6.678;2024-02-26T00:35:53;7.50;99.90
9881;DHT22;4979;51.014;6.678;2024-02-26T00:38:19;7.50;99.90
9881;DHT22;4979;51.014;6.678;2024-02-26T00:40:44;7.40;99.90
9881;DHT22;4979;51.014;6.678;2024-02-26T00:43:10;7.50;99.90
9881;DHT22;4979;51.014;6.678;2024-02-26T00:45:35;7.40;99.90
9881;DHT22;4979;51.014;6.678;2024-02-26T00:48:01;7.40;99.90
9881;DHT22;4979;51.014;6.678;2024-02-26T00:50:32;7.40;99.90
9881;DHT22;4979;51.014;6.678;2024-02-26T00:52:59;7.50;99.90
9881;DHT22;4979;51.014;6.678;2024-02-26T00:55:24;7.50;99.90
9881;DHT22;4979;51.014;6.678;2024-02-26T00:57:50;7.50;99.90
9881;DHT22;4979;51.014;6.678;2024-02-26T01:00:16;7.50;99.90
9881;DHT22;4979;51.014;6.678;2024-02-26T01:02:41;7.50;99.90
9881;DHT22;4979;51.014;6.678;2024-02-26T01:05:08;7.50;99.90
9881;DHT22;4979;51.014;6.678;2024-02-26T01:07:36;7.50;99.90
9881;DHT22;4979;51.014;6.678;2024-02-26T01:10:02;7.50;99.90
9881;DHT22;4979;51.014;6.678;2024-02-26T01:12:28;7.50;99.90
9881;DHT22;4979;51.014;6.678;2024-02-26T01:14:54;7.50;99.90
9881;DHT22;4979;51.014;6.678;2024-02-26T01:17:19;7.40;99.90
9881;DHT22;4979;51.014;6.678;2024-02-26T01:19:45;7.40;99.90
9881;DHT22;4979;51.014;6.678;2024-02-26T01:22:10;7.40;99.90
9881;DHT22;4979;51.014;6.678;2024-02-26T01:24:36;7.40;99.90
9881;DHT22;4979;51.014;6.678;2024-02-26T01:27:01;7.40;99.90
9881;DHT22;4979;51.014;6.678;2024-02-26T01:29:27;7.40;99.90
9881;DHT22;4979;51.014;6.678;2024-02-26T01:31:52;7.40;99.90
9881;DHT22;4979;51.014;6.678;2024-02-26T01:34:18;7.30;99.90
9881;DHT22;4979;51.014;6.678;2024-02-26T01:36:44;7.30;99.90
9881;DHT22;4979;51.014;6.678;2024-02-26T01:39:09;7.40;99.90
9881;DHT22;4979;51.014;6.678;2024-02-26T01:41:38;7.40;99.90
9881;DHT22;4979;51.014;6.678;2024-02-26T01:44:04;7.40;99.90
9881;DHT22;4979;51.014;6.678;2024-02-26T01:46:30;7.40;99.90
9881;DHT22;4979;51.014;6.678;2024-02-26T01:48:56;7.40;99.90
9881;DHT22;4979;51.014;6.678;2024-02-26T01:51:22;7.40;99.90
9881;DHT22;4979;51.014;6.678;2024-02-26T01:53:48;7.40;99.90
9881;DHT22;4979;51.014;6.678;2024-02-26T01:56:15;7.40;99.90
9881;DHT22;4979;51.014;6.678;2024-02-26T01:58:42;7.40;99.90
9881;DHT22;4979;51.014;6.678;2024-02-26T02:01:08;7.40;99.90
9881;DHT22;4979;51.014;6.678;2024-02-26T02:03:36;7.40;99.90
9881;DHT22;4979;51.014;6.678;2024-02-26T02:06:02;7.40;99.90
9881;DHT22;4979;51.014;6.678;2024-02-26T02:08:28;7.40;99.90
9881;DHT22;4979;51.014;6.678;2024-02-26T02:10:55;7.40;99.90
9881;DHT22;4979;51.014;6.678;2024-02-26T02:13:20;7.40;99.90
9881;DHT22;4979;51.014;6.678;2024-02-26T02:15:46;7.30;99.90
9881;DHT22;4979;51.014;6.678;2024-02-26T02:18:11;7.30;99.90
9881;DHT22;4979;51.014;6.678;2024-02-26T02:20:37;7.30;99.90
9881;DHT22;4979;51.014;6.678;2024-02-26T02:23:03;7.20;99.90
9881;DHT22;4979;51.014;6.678;2024-02-26T02:25:28;7.20;99.90
9881;DHT22;4979;51.014;6.678;2024-02-26T02:27:55;7.20;99.90
9881;DHT22;4979;51.014;6.678;2024-02-26T02:30:22;7.20;99.90
9881;DHT22;4979;51.014;6.678;2024-02-26T02:32:49;7.20;99.90
9881;DHT22;4979;51.014;6.678;2024-02-26T02:35:14;7.10;99.90
9881;DHT22;4979;51.014;6.678;2024-02-26T02:37:40;7.20;99.90
9881;DHT22;4979;51.014;6.678;2024-02-26T02:40:06;7.20;99.90
9881;DHT22;4979;51.014;6.678;2024-02-26T02:42:32;7.20;99.90
9881;DHT22;4979;51.014;6.678;2024-02-26T02:44:58;7.20;99.90
9881;DHT22;4979;51.014;6.678;2024-02-26T02:47:23;7.20;99.90
9881;DHT22;4979;51.014;6.678;2024-02-26T02:49:49;7.20;99.90
9881;DHT22;4979;51.014;6.678;2024-02-26T02:52:14;7.10;99.90
9881;DHT22;4979;51.014;6.678;2024-02-26T02:54:40;7.10;99.90
9881;DHT22;4979;51.014;6.678;2024-02-26T02:57:07;7.10;99.90
9881;DHT22;4979;51.014;6.678;2024-02-26T02:59:33;7.10;99.90
9881;DHT22;4979;51.014;6.678;2024-02-26T03:01:59;7.10;99.90
9881;DHT22;4979;51.014;6.678;2024-02-26T03:04:24;7.10;99.90
9881;DHT22;4979;51.014;6.678;2024-02-26T03:06:50;7.10;99.90
9881;DHT22;4979;51.014;6.678;2024-02-26T03:09:16;7.10;99.90
9881;DHT22;4979;51.014;6.678;2024-02-26T03:11:41;7.10;99.90
9881;DHT22;4979;51.014;6.678;2024-02-26T03:14:07;7.10;99.90
9881;DHT22;4979;51.014;6.678;2024-02-26T03:16:33;7.10;99.90
9881;DHT22;4979;51.014;6.678;2024-02-26T03:18:59;7.10;99.90
9881;DHT22;4979;51.014;6.678;2024-02-26T03:21:25;7.10;99.90
9881;DHT22;4979;51.014;6.678;2024-02-26T03:23:51;7.10;99.90
9881;DHT22;4979;51.014;6.678;2024-02-26T03:26:16;7.10;99.90
9881;DHT22;4979;51.014;6.678;2024-02-26T03:28:42;7.10;99.90
9881;DHT22;4979;51.014;6.678;2024-02-26T03:31:08;7.10;99.90
9881;DHT22;4979;51.014;6.678;2024-02-26T03:33:34;7.00;99.90
9881;DHT22;4979;51.014;6.678;2024-02-26T03:35:59;7.00;99.90
9881;DHT22;4979;51.014;6.678;2024-02-26T03:38:25;7.10;99.90
9881;DHT22;4979;51.014;6.678;2024-02-26T03:40:51;7.10;99.90
9881;DHT22;4979;51.014;6.678;2024-02-26T03:43:16;7.10;99.90
9881;DHT22;4979;51.014;6.678;2024-02-26T03:45:42;7.10;99.90
9881;DHT22;4979;51.014;6.678;2024-02-26T03:48:07;7.10;99.90
9881;DHT22;4979;51.014;6.678;2024-02-26T03:50:33;7.10;99.90
9881;DHT22;4979;51.014;6.678;2024-02-26T03:53:00;7.10;99.90
9881;DHT22;4979;51.014;6.678;2024-02-26T03:55:25;7.10;99.90
9881;DHT22;4979;51.014;6.678;2024-02-26T03:57:53;7.00;99.90
9881;DHT22;4979;51.014;6.678;2024-02-26T04:00:19;7.00;99.90
9881;DHT22;4979;51.014;6.678;2024-02-26T04:02:47;7.00;99.90
9881;DHT22;4979;51.014;6.678;2024-02-26T04:05:13;7.00;99.90
9881;DHT22;4979;51.014;6.678;2024-02-26T04:07:39;7.10;99.90
9881;DHT22;4979;51.014;6.678;2024-02-26T04:10:09;7.10;99.90
9881;DHT22;4979;51.014;6.678;2024-02-26T04:12:35;7.10;99.90
9881;DHT22;4979;51.014;6.678;2024-02-26T04:15:01;7.10;99.90
9881;DHT22;4979;51.014;6.678;2024-02-26T04:17:26;7.10;99.90
9881;DHT22;4979;51.014;6.678;2024-02-26T04:19:52;7.10;99.90
9881;DHT22;4979;51.014;6.678;2024-02-26T04:22:17;7.10;99.90
9881;DHT22;4979;51.014;6.678;2024-02-26T04:24:43;7.10;99.90
9881;DHT22;4979;51.014;6.678;2024-02-26T04:27:08;7.10;99.90
9881;DHT22;4979;51.014;6.678;2024-02-26T04:29:34;7.20;99.90
9881;DHT22;4979;51.014;6.678;2024-02-26T04:31:59;7.10;99.90
9881;DHT22;4979;51.014;6.678;2024-02-26T04:34:25;7.20;99.90
9881;DHT22;4979;51.014;6.678;2024-02-26T04:36:50;7.20;99.90
9881;DHT22;4979;51.014;6.678;2024-02-26T04:39:16;7.10;99.90
9881;DHT22;4979;51.014;6.678;2024-02-26T04:41:41;7.20;99.90
9881;DHT22;4979;51.014;6.678;2024-02-26T04:44:07;7.20;99.90
9881;DHT22;4979;51.014;6.678;2024-02-26T04:46:33;7.20;99.90
9881;DHT22;4979;51.014;6.678;2024-02-26T04:48:58;7.20;99.90
9881;DHT22;4979;51.014;6.678;2024-02-26T04:51:24;7.20;99.90
9881;DHT22;4979;51.014;6.678;2024-02-26T04:53:49;7.10;99.90
9881;DHT22;4979;51.014;6.678;2024-02-26T04:56:15;7.10;99.90
9881;DHT22;4979;51.014;6.678;2024-02-26T04:58:40;7.10;99.90
9881;DHT22;4979;51.014;6.678;2024-02-26T05:01:06;7.10;99.90
9881;DHT22;4979;51.014;6.678;2024-02-26T05:03:32;7.10;99.90
9881;DHT22;4979;51.014;6.678;2024-02-26T05:05:57;7.00;99.90
9881;DHT22;4979;51.014;6.678;2024-02-26T05:08:23;7.00;99.90
9881;DHT22;4979;51.014;6.678;2024-02-26T05:10:49;7.00;99.90
9881;DHT22;4979;51.014;6.678;2024-02-26T05:13:14;7.00;99.90
9881;DHT22;4979;51.014;6.678;2024-02-26T05:15:43;7.00;99.90
9881;DHT22;4979;51.014;6.678;2024-02-26T05:18:09;7.00;99.90
9881;DHT22;4979;51.014;6.678;2024-02-26T05:20:34;7.00;99.90
9881;DHT22;4979;51.014;6.678;2024-02-26T05:23:01;7.00;99.90
9881;DHT22;4979;51.014;6.678;2024-02-26T05:25:27;7.00;99.90
9881;DHT22;4979;51.014;6.678;2024-02-26T05:27:52;7.00;99.90
9881;DHT22;4979;51.014;6.678;2024-02-26T05:30:18;7.00;99.90
9881;DHT22;4979;51.014;6.678;2024-02-26T05:32:43;6.90;99.90
9881;DHT22;4979;51.014;6.678;2024-02-26T05:35:09;7.00;99.90
9881;DHT22;4979;51.014;6.678;2024-02-26T05:37:34;7.00;99.90
9881;DHT22;4979;51.014;6.678;2024-02-26T05:40:00;7.00;99.90
9881;DHT22;4979;51.014;6.678;2024-02-26T05:42:25;7.00;99.90
9881;DHT22;4979;51.014;6.678;2024-02-26T05:44:51;7.00;99.90
9881;DHT22;4979;51.014;6.678;2024-02-26T05:47:16;7.00;99.90
9881;DHT22;4979;51.014;6.678;2024-02-26T05:49:43;6.90;99.90
9881;DHT22;4979;51.014;6.678;2024-02-26T05:52:09;6.90;99.90
9881;DHT22;4979;51.014;6.678;2024-02-26T05:54:34;6.90;99.90
9881;DHT22;4979;51.014;6.678;2024-02-26T05:57:00;6.90;99.90
9881;DHT22;4979;51.014;6.678;2024-02-26T05:59:26;6.90;99.90
9881;DHT22;4979;51.014;6.678;2024-02-26T06:01:52;6.80;99.90
9881;DHT22;4979;51.014;6.678;2024-02-26T06:04:17;6.80;99.90
9881;DHT22;4979;51.014;6.678;2024-02-26T06:06:44;6.80;99.90
9881;DHT22;4979;51.014;6.678;2024-02-26T06:09:11;6.80;99.90
9881;DHT22;4979;51.014;6.678;2024-02-26T06:11:36;6.80;99.90
9881;DHT22;4979;51.014;6.678;2024-02-26T06:14:02;6.80;99.90
9881;DHT22;4979;51.014;6.678;2024-02-26T06:16:28;6.80;99.90
9881;DHT22;4979;51.014;6.678;2024-02-26T06:18:53;6.80;99.90
9881;DHT22;4979;51.014;6.678;2024-02-26T06:21:19;6.70;99.90
9881;DHT22;4979;51.014;6.678;2024-02-26T06:23:44;6.70;99.90
9881;DHT22;4979;51.014;6.678;2024-02-26T06:26:10;6.70;99.90
9881;DHT22;4979;51.014;6.678;2024-02-26T06:28:35;6.70;99.90
9881;DHT22;4979;51.014;6.678;2024-02-26T06:31:02;6.80;99.90
9881;DHT22;4979;51.014;6.678;2024-02-26T06:33:27;6.70;99.90
9881;DHT22;4979;51.014;6.678;2024-02-26T06:35:53;6.70;99.90
9881;DHT22;4979;51.014;6.678;2024-02-26T06:38:18;6.70;99.90
9881;DHT22;4979;51.014;6.678;2024-02-26T06:40:45;6.70;99.90
9881;DHT22;4979;51.014;6.678;2024-02-26T06:43:11;6.80;99.90
9881;DHT22;4979;51.014;6.678;2024-02-26T06:45:36;6.80;99.90
9881;DHT22;4979;51.014;6.678;2024-02-26T06:48:02;6.70;99.90
9881;DHT22;4979;51.014;6.678;2024-02-26T06:50:28;6.80;99.90
9881;DHT22;4979;51.014;6.678;2024-02-26T06:52:53;6.80;99.90
9881;DHT22;4979;51.014;6.678;2024-02-26T06:55:19;6.70;99.90
9881;DHT22;4979;51.014;6.678;2024-02-26T06:57:44;6.70;99.90
9881;DHT22;4979;51.014;6.678;2024-02-26T07:00:10;6.70;99.90
9881;DHT22;4979;51.014;6.678;2024-02-26T07:02:40;6.80;99.90
9881;DHT22;4979;51.014;6.678;2024-02-26T07:05:06;6.80;99.90
9881;DHT22;4979;51.014;6.678;2024-02-26T07:07:31;6.80;99.90
9881;DHT22;4979;51.014;6.678;2024-02-26T07:09:57;6.80;99.90
9881;DHT22;4979;51.014;6.678;2024-02-26T07:12:23;6.70;99.90
9881;DHT22;4979;51.014;6.678;2024-02-26T07:14:49;6.80;99.90
9881;DHT22;4979;51.014;6.678;2024-02-26T07:17:15;6.80;99.90
9881;DHT22;4979;51.014;6.678;2024-02-26T07:19:41;6.80;99.90
9881;DHT22;4979;51.014;6.678;2024-02-26T07:22:07;6.80;99.90
9881;DHT22;4979;51.014;6.678;2024-02-26T07:24:33;6.80;99.90
9881;DHT22;4979;51.014;6.678;2024-02-26T07:26:58;6.80;99.90
9881;DHT22;4979;51.014;6.678;2024-02-26T07:29:24;6.80;99.90
9881;DHT22;4979;51.014;6.678;2024-02-26T07:31:49;6.80;99.90
9881;DHT22;4979;51.014;6.678;2024-02-26T07:34:15;6.80;99.90
9881;DHT22;4979;51.014;6.678;2024-02-26T07:36:40;6.80;99.90
9881;DHT22;4979;51.014;6.678;2024-02-26T07:39:06;6.80;99.90
9881;DHT22;4979;51.014;6.678;2024-02-26T07:41:31;6.80;99.90
9881;DHT22;4979;51.014;6.678;2024-02-26T07:43:57;6.80;99.90
9881;DHT22;4979;51.014;6.678;2024-02-26T07:46:22;6.80;99.90
9881;DHT22;4979;51.014;6.678;2024-02-26T07:48:48;6.90;99.90
9881;DHT22;4979;51.014;6.678;2024-02-26T07:51:14;6.90;99.90
9881;DHT22;4979;51.014;6.678;2024-02-26T07:53:40;6.90;99.90
9881;DHT22;4979;51.014;6.678;2024-02-26T07:56:06;6.90;99.90
9881;DHT22;4979;51.014;6.678;2024-02-26T07:58:34;6.80;99.90
9881;DHT22;4979;51.014;6.678;2024-02-26T08:01:00;6.90;99.90
9881;DHT22;4979;51.014;6.678;2024-02-26T08:03:25;6.80;99.90
9881;DHT22;4979;51.014;6.678;2024-02-26T08:05:51;6.80;99.90
9881;DHT22;4979;51.014;6.678;2024-02-26T08:08:16;6.80;99.90
9881;DHT22;4979;51.014;6.678;2024-02-26T08:10:42;6.80;99.90
9881;DHT22;4979;51.014;6.678;2024-02-26T08:13:08;6.70;99.90
9881;DHT22;4979;51.014;6.678;2024-02-26T08:15:34;6.70;99.90
9881;DHT22;4979;51.014;6.678;2024-02-26T08:18:01;6.70;99.90
9881;DHT22;4979;51.014;6.678;2024-02-26T08:20:29;6.70;99.90
9881;DHT22;4979;51.014;6.678;2024-02-26T08:22:55;6.70;99.90
9881;DHT22;4979;51.014;6.678;2024-02-26T08:25:20;6.70;99.90
9881;DHT22;4979;51.014;6.678;2024-02-26T08:27:46;6.80;99.90
9881;DHT22;4979;51.014;6.678;2024-02-26T08:30:13;6.80;99.90
9881;DHT22;4979;51.014;6.678;2024-02-26T08:32:45;6.70;99.90
9881;DHT22;4979;51.014;6.678;2024-02-26T08:35:10;6.80;99.90
9881;DHT22;4979;51.014;6.678;2024-02-26T08:37:36;6.80;99.90
9881;DHT22;4979;51.014;6.678;2024-02-26T08:40:02;6.80;99.90
9881;DHT22;4979;51.014;6.678;2024-02-26T08:42:29;6.80;99.90
9881;DHT22;4979;51.014;6.678;2024-02-26T08:44:55;6.80;99.90
9881;DHT22;4979;51.014;6.678;2024-02-26T08:47:20;6.80;99.90
9881;DHT22;4979;51.014;6.678;2024-02-26T08:49:46;6.80;99.90
9881;DHT22;4979;51.014;6.678;2024-02-26T08:52:11;6.80;99.90
9881;DHT22;4979;51.014;6.678;2024-02-26T08:54:37;6.80;99.90
9881;DHT22;4979;51.014;6.678;2024-02-26T08:57:03;6.80;99.90
9881;DHT22;4979;51.014;6.678;2024-02-26T08:59:29;6.80;99.90
9881;DHT22;4979;51.014;6.678;2024-02-26T09:01:54;6.80;99.90
9881;DHT22;4979;51.014;6.678;2024-02-26T09:04:20;6.80;99.90
9881;DHT22;4979;51.014;6.678;2024-02-26T09:06:46;6.80;99.90
9881;DHT22;4979;51.014;6.678;2024-02-26T09:09:12;6.80;99.90
9881;DHT22;4979;51.014;6.678;2024-02-26T09:11:37;6.80;99.90
9881;DHT22;4979;51.014;6.678;2024-02-26T09:14:03;6.90;99.90
9881;DHT22;4979;51.014;6.678;2024-02-26T09:16:31;6.90;99.90
9881;DHT22;4979;51.014;6.678;2024-02-26T09:18:57;6.90;99.90
9881;DHT22;4979;51.014;6.678;2024-02-26T09:21:23;6.80;99.90
9881;DHT22;4979;51.014;6.678;2024-02-26T09:23:50;6.90;99.90
9881;DHT22;4979;51.014;6.678;2024-02-26T09:26:16;6.90;99.90
9881;DHT22;4979;51.014;6.678;2024-02-26T09:28:42;7.00;99.90
9881;DHT22;4979;51.014;6.678;2024-02-26T09:31:07;7.00;99.90
9881;DHT22;4979;51.014;6.678;2024-02-26T09:33:33;6.90;99.90
9881;DHT22;4979;51.014;6.678;2024-02-26T09:35:59;7.00;99.90
9881;DHT22;4979;51.014;6.678;2024-02-26T09:38:26;7.00;99.90
9881;DHT22;4979;51.014;6.678;2024-02-26T09:40:52;7.00;99.90
9881;DHT22;4979;51.014;6.678;2024-02-26T09:43:21;7.00;99.90
9881;DHT22;4979;51.014;6.678;2024-02-26T09:45:49;7.00;99.90
9881;DHT22;4979;51.014;6.678;2024-02-26T09:48:17;9.20;99.90
9881;DHT22;4979;51.014;6.678;2024-02-26T09:50:43;7.20;99.90
9881;DHT22;4979;51.014;6.678;2024-02-26T09:53:10;7.10;99.90
9881;DHT22;4979;51.014;6.678;2024-02-26T09:55:37;7.10;99.90
9881;DHT22;4979;51.014;6.678;2024-02-26T09:58:05;7.10;99.90
9881;DHT22;4979;51.014;6.678;2024-02-26T10:00:31;7.20;99.90
9881;DHT22;4979;51.014;6.678;2024-02-26T10:03:04;7.10;99.90
9881;DHT22;4979;51.014;6.678;2024-02-26T10:05:31;7.30;99.90
9881;DHT22;4979;51.014;6.678;2024-02-26T10:07:58;7.20;99.90
9881;DHT22;4979;51.014;6.678;2024-02-26T10:10:23;7.20;99.90
9881;DHT22;4979;51.014;6.678;2024-02-26T10:12:49;7.30;99.90
9881;DHT22;4979;51.014;6.678;2024-02-26T10:15:15;7.40;99.90
9881;DHT22;4979;51.014;6.678;2024-02-26T10:17:41;7.40;99.90
9881;DHT22;4979;51.014;6.678;2024-02-26T10:20:15;7.40;99.90
9881;DHT22;4979;51.014;6.678;2024-02-26T10:22:41;7.30;99.90
9881;DHT22;4979;51.014;6.678;2024-02-26T10:25:08;7.30;99.90
9881;DHT22;4979;51.014;6.678;2024-02-26T10:27:34;7.30;99.90
9881;DHT22;4979;51.014;6.678;2024-02-26T10:30:04;7.30;99.90
9881;DHT22;4979;51.014;6.678;2024-02-26T10:32:30;7.30;99.90
9881;DHT22;4979;51.014;6.678;2024-02-26T10:34:56;7.30;99.90
9881;DHT22;4979;51.014;6.678;2024-02-26T10:37:23;7.30;99.90
9881;DHT22;4979;51.014;6.678;2024-02-26T10:39:48;7.40;99.90
9881;DHT22;4979;51.014;6.678;2024-02-26T10:42:14;7.50;99.90
9881;DHT22;4979;51.014;6.678;2024-02-26T10:44:40;7.60;99.90
9881;DHT22;4979;51.014;6.678;2024-02-26T10:47:07;7.80;99.90
9881;DHT22;4979;51.014;6.678;2024-02-26T10:49:35;9.70;99.90
9881;DHT22;4979;51.014;6.678;2024-02-26T10:52:01;7.90;99.90
9881;DHT22;4979;51.014;6.678;2024-02-26T10:54:29;8.00;99.90
9881;DHT22;4979;51.014;6.678;2024-02-26T10:56:56;7.90;99.90
9881;DHT22;4979;51.014;6.678;2024-02-26T10:59:23;7.90;99.90
9881;DHT22;4979;51.014;6.678;2024-02-26T11:01:49;7.90;99.90
9881;DHT22;4979;51.014;6.678;2024-02-26T11:04:16;7.90;99.90
9881;DHT22;4979;51.014;6.678;2024-02-26T11:06:43;8.00;99.90
9881;DHT22;4979;51.014;6.678;2024-02-26T11:09:12;8.10;99.90
9881;DHT22;4979;51.014;6.678;2024-02-26T11:11:38;8.00;99.90
9881;DHT22;4979;51.014;6.678;2024-02-26T11:14:06;8.10;99.90
9881;DHT22;4979;51.014;6.678;2024-02-26T11:16:35;8.10;99.90
9881;DHT22;4979;51.014;6.678;2024-02-26T11:19:02;8.10;99.90
9881;DHT22;4979;51.014;6.678;2024-02-26T11:21:27;8.10;99.90
9881;DHT22;4979;51.014;6.678;2024-02-26T11:24:13;8.10;99.90
9881;DHT22;4979;51.014;6.678;2024-02-26T11:26:46;8.00;99.90
9881;DHT22;4979;51.014;6.678;2024-02-26T11:29:16;8.00;99.90
9881;DHT22;4979;51.014;6.678;2024-02-26T11:31:42;8.00;99.90
9881;DHT22;4979;51.014;6.678;2024-02-26T11:34:09;7.90;99.90
9881;DHT22;4979;51.014;6.678;2024-02-26T11:36:36;7.90;99.90
9881;DHT22;4979;51.014;6.678;2024-02-26T11:39:04;7.90;99.90
9881;DHT22;4979;51.014;6.678;2024-02-26T11:41:29;8.00;99.90
9881;DHT22;4979;51.014;6.678;2024-02-26T11:44:00;7.90;99.90
9881;DHT22;4979;51.014;6.678;2024-02-26T11:46:33;7.90;99.90
9881;DHT22;4979;51.014;6.678;2024-02-26T11:51:54;8.00;99.90
9881;DHT22;4979;51.014;6.678;2024-02-26T11:57:30;8.10;99.90
9881;DHT22;4979;51.014;6.678;2024-02-26T12:02:46;8.10;99.90
9881;DHT22;4979;51.014;6.678;2024-02-26T12:05:20;8.00;99.90
9881;DHT22;4979;51.014;6.678;2024-02-26T12:08:01;8.00;99.90
9881;DHT22;4979;51.014;6.678;2024-02-26T12:10:28;8.00;99.90
9881;DHT22;4979;51.014;6.678;2024-02-26T12:13:00;8.00;99.90
9881;DHT22;4979;51.014;6.678;2024-02-26T12:15:43;8.00;99.90
9881;DHT22;4979;51.014;6.678;2024-02-26T12:18:10;8.00;99.90
9881;DHT22;4979;51.014;6.678;2024-02-26T12:20:40;8.00;99.90
9881;DHT22;4979;51.014;6.678;2024-02-26T12:23:06;8.00;99.90
9881;DHT22;4979;51.014;6.678;2024-02-26T12:25:32;7.90;99.90
9881;DHT22;4979;51.014;6.678;2024-02-26T12:27:59;7.90;99.90
9881;DHT22;4979;51.014;6.678;2024-02-26T12:30:26;7.80;99.90
9881;DHT22;4979;51.014;6.678;2024-02-26T12:32:55;7.80;99.90
9881;DHT22;4979;51.014;6.678;2024-02-26T12:35:26;7.80;99.90
9881;DHT22;4979;51.014;6.678;2024-02-26T12:37:55;7.80;99.90
9881;DHT22;4979;51.014;6.678;2024-02-26T12:40:21;7.90;99.90
9881;DHT22;4979;51.014;6.678;2024-02-26T12:42:47;7.90;99.90
9881;DHT22;4979;51.014;6.678;2024-02-26T12:45:13;7.90;99.90
9881;DHT22;4979;51.014;6.678;2024-02-26T12:47:44;7.90;99.90
9881;DHT22;4979;51.014;6.678;2024-02-26T12:50:15;7.90;99.90
9881;DHT22;4979;51.014;6.678;2024-02-26T12:52:45;7.90;99.90
9881;DHT22;4979;51.014;6.678;2024-02-26T12:55:14;7.90;99.90
9881;DHT22;4979;51.014;6.678;2024-02-26T12:57:41;7.90;99.90
9881;DHT22;4979;51.014;6.678;2024-02-26T13:00:12;7.90;99.90
9881;DHT22;4979;51.014;6.678;2024-02-26T13:02:39;7.90;99.90
9881;DHT22;4979;51.014;6.678;2024-02-26T13:05:06;7.90;99.90
9881;DHT22;4979;51.014;6.678;2024-02-26T13:07:33;8.00;99.90
9881;DHT22;4979;51.014;6.678;2024-02-26T13:10:00;7.90;99.90
9881;DHT22;4979;51.014;6.678;2024-02-26T13:12:26;7.90;99.90
9881;DHT22;4979;51.014;6.678;2024-02-26T13:15:01;7.90;99.90
9881;DHT22;4979;51.014;6.678;2024-02-26T13:17:27;7.90;99.90
9881;DHT22;4979;51.014;6.678;2024-02-26T13:19:56;7.80;99.90
9881;DHT22;4979;51.014;6.678;2024-02-26T13:22:22;7.80;99.90
9881;DHT22;4979;51.014;6.678;2024-02-26T13:24:59;7.70;99.90
9881;DHT22;4979;51.014;6.678;2024-02-26T13:27:25;7.80;99.90
9881;DHT22;4979;51.014;6.678;2024-02-26T13:30:11;7.80;99.90
9881;DHT22;4979;51.014;6.678;2024-02-26T13:32:39;7.80;99.90
9881;DHT22;4979;51.014;6.678;2024-02-26T13:35:10;7.90;99.90
9881;DHT22;4979;51.014;6.678;2024-02-26T13:37:36;7.80;99.90
9881;DHT22;4979;51.014;6.678;2024-02-26T13:40:10;7.90;99.90
9881;DHT22;4979;51.014;6.678;2024-02-26T13:42:39;7.90;99.90
9881;DHT22;4979;51.014;6.678;2024-02-26T13:45:05;7.90;99.90
9881;DHT22;4979;51.014;6.678;2024-02-26T13:47:34;7.90;99.90
9881;DHT22;4979;51.014;6.678;2024-02-26T13:50:00;7.90;99.90
9881;DHT22;4979;51.014;6.678;2024-02-26T13:52:26;7.90;99.90
9881;DHT22;4979;51.014;6.678;2024-02-26T13:54:52;7.80;99.90
9881;DHT22;4979;51.014;6.678;2024-02-26T13:57:21;7.90;99.90
9881;DHT22;4979;51.014;6.678;2024-02-26T13:59:47;7.90;99.90
9881;DHT22;4979;51.014;6.678;2024-02-26T14:02:13;7.90;99.90
9881;DHT22;4979;51.014;6.678;2024-02-26T14:04:38;7.90;99.90
9881;DHT22;4979;51.014;6.678;2024-02-26T14:07:04;8.00;99.90
9881;DHT22;4979;51.014;6.678;2024-02-26T14:09:30;7.90;99.90
9881;DHT22;4979;51.014;6.678;2024-02-26T14:11:57;7.80;99.90
9881;DHT22;4979;51.014;6.678;2024-02-26T14:14:24;7.80;99.90
9881;DHT22;4979;51.014;6.678;2024-02-26T14:16:49;7.80;99.90
9881;DHT22;4979;51.014;6.678;2024-02-26T14:19:15;7.80;99.90
9881;DHT22;4979;51.014;6.678;2024-02-26T14:21:40;7.90;99.90
9881;DHT22;4979;51.014;6.678;2024-02-26T14:24:07;7.80;99.90
9881;DHT22;4979;51.014;6.678;2024-02-26T14:26:33;7.90;99.90
9881;DHT22;4979;51.014;6.678;2024-02-26T14:28:59;7.90;99.90
9881;DHT22;4979;51.014;6.678;2024-02-26T14:31:24;8.00;99.90
9881;DHT22;4979;51.014;6.678;2024-02-26T14:33:51;8.00;99.90
9881;DHT22;4979;51.014;6.678;2024-02-26T14:36:22;8.10;99.90
9881;DHT22;4979;51.014;6.678;2024-02-26T14:38:48;8.00;99.90
9881;DHT22;4979;51.014;6.678;2024-02-26T14:41:13;8.00;99.90
9881;DHT22;4979;51.014;6.678;2024-02-26T14:43:39;8.00;99.90
9881;DHT22;4979;51.014;6.678;2024-02-26T14:46:04;8.10;99.90
9881;DHT22;4979;51.014;6.678;2024-02-26T14:48:31;8.10;99.90
9881;DHT22;4979;51.014;6.678;2024-02-26T14:50:57;8.10;99.90
9881;DHT22;4979;51.014;6.678;2024-02-26T14:53:23;8.00;99.90
9881;DHT22;4979;51.014;6.678;2024-02-26T14:55:48;8.10;99.90
9881;DHT22;4979;51.014;6.678;2024-02-26T14:58:14;8.20;99.90
9881;DHT22;4979;51.014;6.678;2024-02-26T15:00:39;8.20;99.90
9881;DHT22;4979;51.014;6.678;2024-02-26T15:03:05;8.00;99.90
9881;DHT22;4979;51.014;6.678;2024-02-26T15:05:32;8.10;99.90
9881;DHT22;4979;51.014;6.678;2024-02-26T15:07:58;8.00;99.90
9881;DHT22;4979;51.014;6.678;2024-02-26T15:10:24;8.00;99.90
9881;DHT22;4979;51.014;6.678;2024-02-26T15:12:50;8.10;99.90
9881;DHT22;4979;51.014;6.678;2024-02-26T15:15:20;8.00;99.90
9881;DHT22;4979;51.014;6.678;2024-02-26T15:17:46;8.00;99.90
9881;DHT22;4979;51.014;6.678;2024-02-26T15:20:11;7.90;99.90
9881;DHT22;4979;51.014;6.678;2024-02-26T15:22:37;8.00;99.90
9881;DHT22;4979;51.014;6.678;2024-02-26T15:25:03;8.00;99.90
9881;DHT22;4979;51.014;6.678;2024-02-26T15:27:29;8.00;99.90
9881;DHT22;4979;51.014;6.678;2024-02-26T15:29:54;8.00;99.90
9881;DHT22;4979;51.014;6.678;2024-02-26T15:32:24;8.10;99.90
9881;DHT22;4979;51.014;6.678;2024-02-26T15:34:50;8.00;99.90
9881;DHT22;4979;51.014;6.678;2024-02-26T15:37:16;8.00;99.90
9881;DHT22;4979;51.014;6.678;2024-02-26T15:39:41;8.00;99.90
9881;DHT22;4979;51.014;6.678;2024-02-26T15:42:07;8.00;99.90
9881;DHT22;4979;51.014;6.678;2024-02-26T15:44:32;8.00;99.90
9881;DHT22;4979;51.014;6.678;2024-02-26T15:46:58;8.00;99.90
9881;DHT22;4979;51.014;6.678;2024-02-26T15:49:25;7.90;99.90
9881;DHT22;4979;51.014;6.678;2024-02-26T15:51:50;8.00;99.90
9881;DHT22;4979;51.014;6.678;2024-02-26T15:54:16;7.90;99.90
9881;DHT22;4979;51.014;6.678;2024-02-26T15:56:42;7.80;99.90
9881;DHT22;4979;51.014;6.678;2024-02-26T15:59:07;7.90;99.90
9881;DHT22;4979;51.014;6.678;2024-02-26T16:01:33;7.90;99.90
9881;DHT22;4979;51.014;6.678;2024-02-26T16:04:00;7.90;99.90
9881;DHT22;4979;51.014;6.678;2024-02-26T16:08:57;7.80;99.90
9881;DHT22;4979;51.014;6.678;2024-02-26T16:11:22;7.80;99.90
9881;DHT22;4979;51.014;6.678;2024-02-26T16:13:52;7.80;99.90
9881;DHT22;4979;51.014;6.678;2024-02-26T16:16:21;7.80;99.90
9881;DHT22;4979;51.014;6.678;2024-02-26T16:18:49;7.80;99.90
9881;DHT22;4979;51.014;6.678;2024-02-26T16:21:15;7.70;99.90
9881;DHT22;4979;51.014;6.678;2024-02-26T16:23:40;7.70;99.90